Ana Sayfa
METAR-TAF:

METAR-TAF

Havaalanları :

Ciudad Obregón, Meksika

Enlem: 27-24N, Boylam: 109-50W, yükseklik: 62 m

Güncel hava durumu gözlemi

Rapor saat 01:48 UTC de 6 saat ve 39 dakika önce yapıldı.
Rüzgar kuzeybatıdan 5 kt
Sıcaklık 22°C
Nem 57%
Basınç 1016 hPa
Görüş mesafesi: 16.1 km
Açık gökyüzü

METAR: MMCN 070148Z 32005KT 10SM SKC 22/13 A3000

Saat: 01:27 (08:27 UTC)

Tahmin

Rapor saat 04:47 UTC de 3 saat ve 40 dakika önce yapıldı.
Ayın 07'si saat 06 UTC'den ayın 08'si saat 06 UTC'ye kadar geçerli Tahmin
Rüzgar batı/kuzeybatıdan 5 kt
Görüş mesafesi: 10 km
Açık gökyüzü
Ayın 07'si saat 1800 UTC'den
Rüzgar kuzey/kuzeybatıdan 12 kt
Görüş mesafesi: 10 km
Açık gökyüzü
Ayın 08'si saat 0300 UTC'den
Rüzgar kuzey/kuzeybatıdan 5 kt
Görüş mesafesi: 10 km
Açık gökyüzü

TAF: MMCN 070447Z 0706/0806 30005KT P6SM SKC FM071800 33012KT P6SM SKC FM080300 33005KT P6SM SKC

4.000'den fazla havaalanı için hava durumu gözlemleri ve tahminleri (METAR ve TAF raporları).

Kullanılabilir istasyonlar harita üzerinde sarı ve kırmızı noktalarla gösterilir.

İstasyonun adını görmek için fareyi noktanın üzerinde gezdirin.

Sonrasında hava gözlem ve tahminlerini görmek için tıklayın.

Haritayı değiştirmek için: yaklaştırmak için siyah artı işaretli yeşil düğmeye ve uzaklaştırmak için de eksi işaretli düğmeye hızla tıklayın; bitişik haritalar için yeşil okları kullanın.


METAR-TAF: